Time;durP1;ratioP1;P1;durP2;ratioP2;P2;SDS_P1;SDS_P2;PMS_P1;PMS_P2;Temp;Humidity;BMP_temperature;BMP_pressure;BME280_temperature;BME280_humidity;BME280_pressure;Samples;Min_cycle;Max_cycle;Signal;HPM_P1;HPM_P2
2022/04/12 00:00:37;;;;;;;75.78;41.42;;;2.40;99.90;;;;;;5035504;28;20092;-77
2022/04/12 00:03:05;;;;;;;77.47;43.03;;;2.40;99.90;;;;;;5035983;28;20140;-77
2022/04/12 00:05:33;;;;;;;83.22;47.33;;;2.30;99.90;;;;;;5038297;28;20100;-77
2022/04/12 00:08:01;;;;;;;107.25;60.45;;;2.20;99.90;;;;;;5037617;28;20045;-76
2022/04/12 00:10:31;;;;;;;83.47;50.63;;;2.20;1.00;;;;;;5065907;28;20049;-77
2022/04/12 00:13:00;;;;;;;114.00;65.45;;;2.10;1.00;;;;;;5079262;28;20047;-76
2022/04/12 00:15:28;;;;;;;88.10;51.58;;;2.10;1.00;;;;;;5062579;28;20048;-78
2022/04/12 00:20:42;;;;;;;85.95;50.85;;;2.00;1.00;;;;;;5059816;28;20044;-77
2022/04/12 00:23:12;;;;;;;95.35;57.03;;;2.10;1.00;;;;;;5077422;28;20040;-76
2022/04/12 00:25:42;;;;;;;99.25;56.20;;;2.10;1.00;;;;;;5078752;28;20060;-76
2022/04/12 00:28:10;;;;;;;78.53;47.05;;;2.00;1.00;;;;;;5060521;28;20040;-77
2022/04/12 00:30:38;;;;;;;99.70;53.70;;;2.00;1.00;;;;;;5080200;28;20503;-77
2022/04/12 00:33:06;;;;;;;98.40;53.78;;;2.00;1.00;;;;;;5061365;28;20540;-77
2022/04/12 00:35:34;;;;;;;101.03;52.67;;;2.00;1.00;;;;;;5078420;28;20041;-77
2022/04/12 00:38:13;;;;;;;91.95;49.83;;;2.00;1.00;;;;;;5076720;28;20068;-76
2022/04/12 00:40:42;;;;;;;86.38;47.97;;;2.00;1.00;;;;;;5079904;28;20040;-77
2022/04/12 00:43:09;;;;;;;90.60;48.05;;;2.00;1.00;;;;;;5084062;28;20036;-77
2022/04/12 00:45:37;;;;;;;79.78;44.35;;;2.00;1.00;;;;;;5085122;28;20044;-77
2022/04/12 00:48:05;;;;;;;82.32;45.25;;;2.00;1.00;;;;;;5083312;28;20080;-77
2022/04/12 00:50:32;;;;;;;70.68;40.40;;;2.00;1.00;;;;;;5080656;28;20055;-76
2022/04/12 00:53:00;;;;;;;76.40;41.05;;;1.90;1.00;;;;;;5080411;28;20040;-77
2022/04/12 00:55:30;;;;;;;77.53;41.92;;;1.90;1.00;;;;;;5083768;28;20056;-76
2022/04/12 00:58:05;;;;;;;79.35;42.10;;;1.80;1.00;;;;;;5071283;28;20059;-76
2022/04/12 01:00:32;;;;;;;81.72;44.78;;;1.90;24.30;;;;;;5069063;28;20072;-75
2022/04/12 01:03:00;;;;;;;83.35;42.70;;;1.90;1.00;;;;;;5081940;28;20041;-76
2022/04/12 01:05:28;;;;;;;87.70;44.78;;;1.90;1.00;;;;;;5085178;28;20051;-78
2022/04/12 01:07:56;;;;;;;83.18;44.30;;;1.80;30.00;;;;;;5062883;28;20094;-78
2022/04/12 01:10:24;;;;;;;84.22;43.35;;;1.80;40.30;;;;;;5062003;28;20048;-78
2022/04/12 01:12:53;;;;;;;83.97;45.10;;;1.80;19.20;;;;;;5062029;28;20052;-76
2022/04/12 01:15:25;;;;;;;83.28;43.13;;;1.80;96.50;;;;;;5079147;28;20076;-76
2022/04/12 01:17:53;;;;;;;76.47;41.85;;;1.80;99.90;;;;;;5059592;28;20064;-78
2022/04/12 01:20:24;;;;;;;79.30;40.80;;;1.70;99.90;;;;;;5058781;28;20127;-77
2022/04/12 01:23:03;;;;;;;80.57;40.58;;;1.70;99.90;;;;;;5058662;28;20083;-78
2022/04/12 01:25:32;;;;;;;80.85;42.13;;;1.70;99.90;;;;;;5077164;28;20036;-77
2022/04/12 01:27:59;;;;;;;77.85;42.13;;;1.70;99.90;;;;;;5057857;28;20392;-77
2022/04/12 01:30:27;;;;;;;83.15;42.25;;;1.70;99.90;;;;;;5057149;28;20066;-77
2022/04/12 01:32:55;;;;;;;87.90;44.58;;;1.60;99.90;;;;;;5057649;28;20041;-76
2022/04/12 01:35:22;;;;;;;84.03;42.95;;;1.60;99.90;;;;;;5076337;28;20213;-76
2022/04/12 01:37:50;;;;;;;85.70;42.42;;;1.50;99.90;;;;;;5075638;28;20492;-76
2022/04/12 01:40:17;;;;;;;67.20;37.75;;;1.60;1.00;;;;;;5076035;28;20047;-77
2022/04/12 01:42:46;;;;;;;64.88;34.97;;;1.70;99.90;;;;;;5058193;28;20087;-78
2022/04/12 01:45:14;;;;;;;65.90;34.35;;;1.60;99.90;;;;;;5075869;28;20051;-77
2022/04/12 01:47:41;;;;;;;68.60;37.13;;;1.60;99.90;;;;;;5075554;28;20124;-77
2022/04/12 01:50:09;;;;;;;65.90;36.38;;;1.50;99.90;;;;;;5057852;28;20054;-77
2022/04/12 01:52:37;;;;;;;66.57;36.13;;;1.50;1.00;;;;;;5075430;28;20119;-77
2022/04/12 01:55:05;;;;;;;64.85;33.30;;;1.50;1.00;;;;;;5059462;28;20041;-78
2022/04/12 01:57:33;;;;;;;68.70;35.58;;;1.60;1.00;;;;;;5076712;28;20075;-78
2022/04/12 02:00:02;;;;;;;68.72;35.22;;;1.50;1.00;;;;;;5075838;28;20044;-78
2022/04/12 02:02:39;;;;;;;67.47;36.75;;;1.50;99.90;;;;;;5075137;28;20411;-77
2022/04/12 02:05:07;;;;;;;65.15;37.13;;;1.50;1.00;;;;;;5076498;28;20054;-77
2022/04/12 02:07:34;;;;;;;69.32;36.00;;;1.50;1.00;;;;;;5076301;28;20110;-78
2022/04/12 02:10:03;;;;;;;63.63;33.95;;;1.50;1.00;;;;;;5057467;28;20060;-76
2022/04/12 02:12:30;;;;;;;52.10;28.63;;;1.40;1.00;;;;;;5075345;28;20500;-78
2022/04/12 02:14:59;;;;;;;63.78;29.58;;;1.40;1.00;;;;;;5057168;28;20094;-77
2022/04/12 02:17:28;;;;;;;66.78;35.90;;;1.40;1.00;;;;;;5057593;28;20141;-77
2022/04/12 02:19:56;;;;;;;57.67;31.67;;;1.40;1.00;;;;;;5057789;28;20472;-76
2022/04/12 02:22:23;;;;;;;59.35;32.25;;;1.40;1.00;;;;;;5075733;28;20046;-76
2022/04/12 02:24:51;;;;;;;53.83;29.40;;;1.30;1.00;;;;;;5057751;28;20068;-77
2022/04/12 02:27:18;;;;;;;52.47;28.35;;;1.40;1.00;;;;;;5075380;28;20075;-77
2022/04/12 02:29:45;;;;;;;56.60;31.00;;;1.30;1.00;;;;;;5075303;28;20423;-77
2022/04/12 02:32:13;;;;;;;55.22;30.10;;;1.30;1.00;;;;;;5076711;28;20044;-77
2022/04/12 02:34:42;;;;;;;53.72;30.33;;;1.30;1.00;;;;;;5077244;28;20042;-77
2022/04/12 02:37:10;;;;;;;51.15;29.45;;;1.30;1.00;;;;;;5075756;28;20514;-77
2022/04/12 02:39:37;;;;;;;46.67;27.60;;;1.20;1.00;;;;;;5074562;28;20046;-77
2022/04/12 02:42:05;;;;;;;45.35;26.60;;;1.20;1.00;;;;;;5057635;28;20045;-76
2022/04/12 02:44:33;;;;;;;47.22;26.20;;;1.20;1.00;;;;;;5056606;28;20048;-77
2022/04/12 02:47:00;;;;;;;48.65;24.98;;;1.20;1.00;;;;;;5074493;28;20078;-77
2022/04/12 02:49:28;;;;;;;46.13;24.20;;;1.20;1.00;;;;;;5074293;28;20391;-76
2022/04/12 02:51:57;;;;;;;47.15;25.85;;;1.10;99.40;;;;;;5074662;28;20055;-76
2022/04/12 02:54:24;;;;;;;40.80;24.75;;;1.20;99.90;;;;;;5056330;28;20396;-78
2022/04/12 02:56:52;;;;;;;46.60;24.95;;;1.20;99.90;;;;;;5056342;28;20573;-77
2022/04/12 02:59:19;;;;;;;38.22;21.77;;;1.30;1.00;;;;;;5074189;28;20483;-77
2022/04/12 03:01:47;;;;;;;41.80;23.77;;;1.30;99.90;;;;;;5073813;28;20032;-76
2022/04/12 03:04:14;;;;;;;45.15;23.23;;;1.30;99.90;;;;;;5073786;28;20057;-77
2022/04/12 03:06:42;;;;;;;41.30;24.67;;;1.20;1.00;;;;;;5074327;28;20113;-77
2022/04/12 03:09:11;;;;;;;47.15;25.08;;;1.20;1.00;;;;;;5073925;28;20064;-77
2022/04/12 03:11:39;;;;;;;40.83;24.38;;;1.10;1.00;;;;;;5056402;28;20044;-77
2022/04/12 03:14:08;;;;;;;42.10;24.02;;;1.10;44.90;;;;;;5073689;28;20495;-78
2022/04/12 03:16:36;;;;;;;43.40;23.45;;;1.00;99.90;;;;;;5073212;28;20067;-77
2022/04/12 03:19:04;;;;;;;47.85;23.02;;;1.10;99.90;;;;;;5073347;28;20124;-77
2022/04/12 03:21:31;;;;;;;47.78;26.35;;;1.10;99.90;;;;;;5074142;28;20066;-77
2022/04/12 03:23:59;;;;;;;48.38;25.00;;;1.10;99.90;;;;;;5055662;28;20110;-77
2022/04/12 03:26:28;;;;;;;47.17;27.00;;;0.90;1.00;;;;;;5055708;28;20071;-77
2022/04/12 03:28:55;;;;;;;56.75;32.55;;;0.90;1.00;;;;;;5055274;28;20560;-76
2022/04/12 03:31:23;;;;;;;57.35;32.13;;;1.00;1.00;;;;;;5066663;28;20051;-77
2022/04/12 03:33:51;;;;;;;50.13;31.58;;;0.90;1.00;;;;;;5072767;28;20037;-77
2022/04/12 03:36:18;;;;;;;51.88;29.70;;;0.90;1.00;;;;;;5074434;28;20040;-76
2022/04/12 03:38:49;;;;;;;53.60;31.52;;;1.00;99.90;;;;;;5071670;28;20514;-77
2022/04/12 03:41:19;;;;;;;47.50;29.63;;;0.90;99.90;;;;;;5055811;28;20049;-76
2022/04/12 03:43:48;;;;;;;47.38;29.27;;;0.90;99.90;;;;;;5055129;28;20165;-77
2022/04/12 03:46:15;;;;;;;46.08;29.27;;;1.00;1.00;;;;;;5074298;28;20110;-77
2022/04/12 03:48:43;;;;;;;46.65;29.40;;;0.90;1.00;;;;;;5073900;28;20045;-77
2022/04/12 03:51:11;;;;;;;46.42;28.27;;;0.90;99.90;;;;;;5055741;28;20040;-77
2022/04/12 03:53:39;;;;;;;44.05;26.27;;;0.90;99.90;;;;;;5073694;28;20048;-77
2022/04/12 03:56:07;;;;;;;35.90;22.65;;;0.90;1.00;;;;;;5073880;28;20079;-77
2022/04/12 03:58:36;;;;;;;32.33;17.77;;;0.90;1.00;;;;;;5072918;28;20040;-76
2022/04/12 04:01:05;;;;;;;36.42;22.95;;;0.90;1.00;;;;;;5055191;28;20132;-78
2022/04/12 04:03:35;;;;;;;44.70;27.92;;;1.00;1.00;;;;;;5072275;28;20037;-77
2022/04/12 04:06:03;;;;;;;46.25;26.83;;;1.00;99.90;;;;;;5072829;28;20040;-78
2022/04/12 04:08:30;;;;;;;47.33;27.60;;;1.00;1.00;;;;;;5071786;28;20320;-76
2022/04/12 04:10:58;;;;;;;48.15;27.27;;;1.00;1.00;;;;;;5069328;28;20478;-77
2022/04/12 04:13:26;;;;;;;45.72;26.35;;;1.00;99.90;;;;;;5070727;28;20048;-77
2022/04/12 04:15:54;;;;;;;44.85;24.63;;;1.00;99.90;;;;;;5075164;28;20049;-77
2022/04/12 04:18:23;;;;;;;41.65;25.02;;;1.00;1.00;;;;;;5059459;28;20056;-77
2022/04/12 04:20:50;;;;;;;41.60;24.05;;;1.00;1.00;;;;;;5057436;28;20040;-78
2022/04/12 04:23:18;;;;;;;45.25;23.70;;;1.00;1.00;;;;;;5074895;28;20056;-77
2022/04/12 04:25:45;;;;;;;43.95;23.33;;;1.00;1.00;;;;;;5041000;28;20080;-78
2022/04/12 04:28:12;;;;;;;40.53;23.30;;;1.10;1.00;;;;;;5051528;28;20040;-78
2022/04/12 04:30:44;;;;;;;42.72;22.45;;;1.10;1.00;;;;;;5053925;28;20040;-77
2022/04/12 04:33:12;;;;;;;48.17;25.17;;;1.20;1.00;;;;;;5061055;28;20052;-78
2022/04/12 04:35:41;;;;;;;50.13;28.13;;;1.40;99.90;;;;;;5074381;28;20040;-78
2022/04/12 04:38:08;;;;;;;50.10;26.17;;;1.50;1.00;;;;;;5059317;28;20083;-77
2022/04/12 04:40:36;;;;;;;52.90;30.55;;;1.50;99.90;;;;;;5040122;28;20055;-76
2022/04/12 04:43:03;;;;;;;55.58;29.00;;;1.60;99.90;;;;;;5058057;28;20064;-76
2022/04/12 04:45:31;;;;;;;51.42;27.70;;;1.60;1.00;;;;;;5069568;28;20508;-77
2022/04/12 04:48:00;;;;;;;44.50;25.15;;;1.70;1.00;;;;;;5076884;28;20044;-77
2022/04/12 04:50:30;;;;;;;48.03;25.58;;;1.80;1.00;;;;;;5075703;28;20037;-77
2022/04/12 04:52:59;;;;;;;49.80;26.77;;;1.90;1.00;;;;;;5039879;28;20052;-77
2022/04/12 04:55:27;;;;;;;49.83;25.70;;;2.00;1.00;;;;;;5038981;28;20102;-78
2022/04/12 04:57:56;;;;;;;50.33;27.55;;;2.00;99.90;;;;;;5043796;28;20155;-77
2022/04/12 05:00:25;;;;;;;57.92;29.92;;;2.10;99.90;;;;;;5059928;28;20477;-76
2022/04/12 05:02:54;;;;;;;77.25;37.88;;;2.10;99.90;;;;;;5060060;28;20480;-76
2022/04/12 05:05:22;;;;;;;88.43;40.05;;;2.40;99.90;;;;;;5084636;28;20522;-77
2022/04/12 05:07:52;;;;;;;109.03;45.50;;;2.40;1.00;;;;;;5090195;28;20055;-76
2022/04/12 05:10:22;;;;;;;103.50;46.85;;;2.40;1.00;;;;;;5088554;28;20045;-81
2022/04/12 05:12:50;;;;;;;72.75;35.67;;;2.50;1.00;;;;;;5072208;28;20079;-82
2022/04/12 05:15:18;;;;;;;79.50;37.90;;;2.60;1.00;;;;;;5069120;28;20134;-81
2022/04/12 05:17:50;;;;;;;77.28;36.35;;;2.70;1.00;;;;;;5066188;28;20115;-81
2022/04/12 05:20:19;;;;;;;58.47;31.98;;;2.80;1.00;;;;;;5085824;28;20045;-81
2022/04/12 05:22:47;;;;;;;53.00;27.05;;;2.80;1.00;;;;;;5084196;28;20040;-81
2022/04/12 05:25:15;;;;;;;53.08;27.95;;;3.00;1.00;;;;;;5087398;28;20049;-79
2022/04/12 05:27:44;;;;;;;53.88;29.77;;;3.20;1.00;;;;;;5088558;28;20045;-81
2022/04/12 05:30:13;;;;;;;51.95;29.55;;;3.40;1.00;;;;;;5069996;28;20045;-81
2022/04/12 05:32:41;;;;;;;53.08;29.10;;;3.60;99.90;;;;;;5074352;28;20071;-79
2022/04/12 05:35:10;;;;;;;51.85;26.80;;;3.80;99.90;;;;;;5087716;28;20489;-81
2022/04/12 05:37:45;;;;;;;47.30;26.77;;;4.00;99.90;;;;;;5081606;28;20045;-80
2022/04/12 05:40:14;;;;;;;46.47;27.60;;;4.20;15.60;;;;;;5088407;28;20037;-82
2022/04/12 05:42:43;;;;;;;51.85;29.02;;;4.40;1.00;;;;;;5089690;28;20127;-80
2022/04/12 05:45:12;;;;;;;55.22;31.42;;;4.70;1.00;;;;;;5091139;28;20029;-81
2022/04/12 05:47:44;;;;;;;52.28;28.88;;;4.90;1.00;;;;;;5088842;28;20143;-82
2022/04/12 05:50:13;;;;;;;56.05;27.67;;;5.20;1.00;;;;;;5065201;28;20045;-81
2022/04/12 05:52:41;;;;;;;52.30;27.45;;;5.60;1.00;;;;;;5084986;28;20044;-81
2022/04/12 05:55:10;;;;;;;70.25;34.28;;;6.00;1.00;;;;;;5085475;28;20064;-81
2022/04/12 05:57:39;;;;;;;81.03;39.33;;;6.30;1.00;;;;;;5087736;28;20048;-81
2022/04/12 06:00:10;;;;;;;67.75;36.75;;;6.40;99.90;;;;;;5083369;28;20131;-83
2022/04/12 06:02:37;;;;;;;66.75;38.13;;;6.50;99.90;;;;;;5080173;28;20033;-80
2022/04/12 06:05:05;;;;;;;67.43;36.55;;;6.60;99.90;;;;;;5083150;28;20040;-81
2022/04/12 06:07:34;;;;;;;86.15;37.45;;;6.80;99.90;;;;;;5050819;28;20049;-80
2022/04/12 06:10:02;;;;;;;63.58;34.65;;;6.90;99.90;;;;;;5044170;28;20052;-79
2022/04/12 06:12:29;;;;;;;61.00;34.33;;;7.10;99.90;;;;;;5059485;28;20044;-79
2022/04/12 06:14:57;;;;;;;56.35;32.28;;;7.50;99.90;;;;;;5061344;28;20041;-78
2022/04/12 06:17:31;;;;;;;44.35;27.05;;;7.60;99.90;;;;;;5061520;28;20526;-79
2022/04/12 06:20:03;;;;;;;46.33;26.67;;;7.90;75.80;;;;;;5060712;28;20095;-80
2022/04/12 06:22:31;;;;;;;41.42;24.10;;;8.30;50.10;;;;;;5064095;28;20093;-80
2022/04/12 06:24:59;;;;;;;39.97;22.65;;;8.70;17.10;;;;;;5046089;28;20110;-78
2022/04/12 06:27:31;;;;;;;39.47;22.92;;;9.00;1.00;;;;;;5043652;28;20056;-79
2022/04/12 06:29:59;;;;;;;41.40;21.85;;;9.20;1.00;;;;;;5061265;28;20052;-78
2022/04/12 06:32:27;;;;;;;31.40;19.10;;;9.60;1.00;;;;;;5061435;28;20033;-80
2022/04/12 06:34:56;;;;;;;33.40;19.65;;;9.70;1.00;;;;;;5061874;28;20056;-79
2022/04/12 06:37:27;;;;;;;34.72;19.70;;;9.50;1.00;;;;;;5061837;28;20037;-80
2022/04/12 06:39:56;;;;;;;34.55;19.08;;;9.20;1.00;;;;;;5061992;28;20455;-78
2022/04/12 06:42:24;;;;;;;26.52;17.90;;;9.20;1.00;;;;;;5045192;28;20512;-76
2022/04/12 06:44:51;;;;;;;26.75;16.33;;;9.40;1.00;;;;;;5061463;28;20060;-80
2022/04/12 06:47:19;;;;;;;28.60;17.30;;;9.60;1.00;;;;;;5059534;28;20051;-79
2022/04/12 06:49:47;;;;;;;26.75;15.50;;;9.70;1.00;;;;;;5063065;28;20142;-78
2022/04/12 06:52:17;;;;;;;31.67;18.60;;;9.90;1.00;;;;;;5061053;28;20044;-81
2022/04/12 06:54:45;;;;;;;26.90;16.73;;;10.20;1.00;;;;;;5083568;28;20074;-79
2022/04/12 06:57:12;;;;;;;21.38;13.30;;;10.60;1.00;;;;;;5085166;28;20033;-81
2022/04/12 06:59:40;;;;;;;25.13;12.15;;;10.60;1.00;;;;;;5086783;28;20052;-81
2022/04/12 07:02:08;;;;;;;16.83;9.25;;;10.70;1.00;;;;;;5083159;28;20045;-81
2022/04/12 07:04:36;;;;;;;15.30;8.80;;;10.80;1.00;;;;;;5087682;28;20044;-81
2022/04/12 07:07:04;;;;;;;26.52;9.68;;;11.00;1.00;;;;;;5087216;28;20084;-81
2022/04/12 07:09:33;;;;;;;17.50;9.65;;;11.10;1.00;;;;;;5087661;28;20049;-81
2022/04/12 07:12:02;;;;;;;20.67;11.23;;;11.10;1.00;;;;;;5088851;28;20047;-82
2022/04/12 07:14:31;;;;;;;16.50;10.48;;;11.20;1.00;;;;;;5089255;28;20052;-81
2022/04/12 07:16:59;;;;;;;19.83;10.35;;;11.30;1.00;;;;;;5086942;28;20045;-80
2022/04/12 07:19:27;;;;;;;18.60;8.73;;;11.50;1.00;;;;;;5069146;28;20108;-80
2022/04/12 07:21:55;;;;;;;19.15;7.25;;;11.80;1.00;;;;;;5088012;28;20044;-79
2022/04/12 07:24:22;;;;;;;17.42;6.82;;;12.10;1.00;;;;;;5086708;28;20048;-81
2022/04/12 07:26:51;;;;;;;10.10;5.88;;;12.30;1.00;;;;;;5069515;28;20048;-80
2022/04/12 07:29:19;;;;;;;16.15;5.47;;;12.50;1.00;;;;;;5086655;28;20040;-80
2022/04/12 07:31:46;;;;;;;14.07;6.55;;;12.60;1.00;;;;;;5088634;28;20039;-79
2022/04/12 07:34:13;;;;;;;11.60;7.55;;;12.80;1.00;;;;;;5089879;28;20058;-78
2022/04/12 07:36:47;;;;;;;13.95;6.05;;;13.20;1.00;;;;;;5084192;28;20051;-79
2022/04/12 07:39:15;;;;;;;9.45;5.57;;;13.60;1.00;;;;;;5082196;28;20060;-80
2022/04/12 07:41:42;;;;;;;16.63;5.50;;;14.00;1.00;;;;;;5083585;28;20492;-80
2022/04/12 07:44:11;;;;;;;8.60;4.38;;;14.10;1.00;;;;;;5083870;28;20052;-80
2022/04/12 07:46:39;;;;;;;10.60;5.78;;;14.40;1.00;;;;;;5085706;28;20044;-81
2022/04/12 07:49:06;;;;;;;12.23;5.55;;;14.70;1.00;;;;;;5086475;28;20585;-79
2022/04/12 07:51:34;;;;;;;9.18;6.38;;;14.70;1.00;;;;;;5090293;28;20100;-80
2022/04/12 07:54:02;;;;;;;9.98;6.30;;;14.80;1.00;;;;;;5091299;28;20131;-81
2022/04/12 07:56:30;;;;;;;11.95;7.13;;;14.80;1.00;;;;;;5091067;28;20051;-79
2022/04/12 07:58:57;;;;;;;16.23;7.93;;;14.90;1.00;;;;;;5096914;28;20080;-78
2022/04/12 08:01:26;;;;;;;10.43;7.13;;;15.00;1.00;;;;;;5078505;28;20127;-80
2022/04/12 08:03:54;;;;;;;10.90;6.25;;;15.10;1.00;;;;;;5097902;28;20064;-79
2022/04/12 08:06:21;;;;;;;9.57;6.15;;;15.00;1.00;;;;;;5097439;28;20039;-79
2022/04/12 08:08:49;;;;;;;10.18;6.40;;;14.90;1.00;;;;;;5096696;28;20044;-78
2022/04/12 08:11:16;;;;;;;16.58;8.07;;;15.00;1.00;;;;;;5085166;28;20057;-79
2022/04/12 08:13:45;;;;;;;13.45;6.82;;;15.10;1.00;;;;;;5066335;28;20048;-78
2022/04/12 08:16:15;;;;;;;10.73;6.07;;;15.20;1.00;;;;;;5086442;28;20052;-78
2022/04/12 08:18:45;;;;;;;11.02;6.57;;;15.20;1.00;;;;;;5088676;28;20120;-80
2022/04/12 08:21:12;;;;;;;14.10;7.07;;;15.10;1.00;;;;;;5075736;28;20068;-80
2022/04/12 08:23:39;;;;;;;12.32;6.50;;;15.00;1.00;;;;;;5093384;28;20067;-78
2022/04/12 08:26:07;;;;;;;11.68;6.57;;;15.00;1.00;;;;;;5092160;28;20063;-79
2022/04/12 08:28:34;;;;;;;13.95;7.93;;;14.90;1.00;;;;;;5094097;28;20069;-80
2022/04/12 08:31:02;;;;;;;13.90;8.35;;;14.80;1.00;;;;;;5073965;28;20107;-79
2022/04/12 08:33:29;;;;;;;14.25;6.43;;;14.90;1.00;;;;;;5092494;28;20048;-80
2022/04/12 08:35:59;;;;;;;11.55;6.70;;;15.00;1.00;;;;;;5090473;28;20052;-77
2022/04/12 08:38:26;;;;;;;13.43;6.45;;;15.20;1.00;;;;;;5085767;28;20036;-78
2022/04/12 08:40:56;;;;;;;15.38;6.43;;;15.50;1.00;;;;;;5065764;28;20051;-78
2022/04/12 08:43:25;;;;;;;11.60;6.40;;;15.60;1.00;;;;;;5065705;28;20131;-78
2022/04/12 08:45:53;;;;;;;15.40;9.32;;;15.80;1.00;;;;;;5084445;28;20052;-79
2022/04/12 08:48:21;;;;;;;15.57;7.70;;;16.00;1.00;;;;;;5069000;28;20048;-78
2022/04/12 08:50:49;;;;;;;21.30;8.25;;;16.20;1.00;;;;;;5071154;28;20049;-81
2022/04/12 08:53:19;;;;;;;22.45;8.50;;;16.40;1.00;;;;;;5094579;28;20033;-80
2022/04/12 08:55:47;;;;;;;15.30;8.02;;;16.30;1.00;;;;;;5071670;28;20041;-81
2022/04/12 08:58:14;;;;;;;18.80;8.23;;;16.40;1.00;;;;;;5089219;28;20391;-80
2022/04/12 09:00:42;;;;;;;17.92;9.82;;;16.30;1.00;;;;;;5089252;28;20053;-79
2022/04/12 09:03:09;;;;;;;18.65;8.57;;;16.50;1.00;;;;;;5087671;28;20036;-81
2022/04/12 09:05:36;;;;;;;13.30;7.43;;;16.70;1.00;;;;;;5086733;28;20519;-80
2022/04/12 09:08:04;;;;;;;14.68;7.75;;;16.60;1.00;;;;;;5087262;28;20036;-81
2022/04/12 09:10:37;;;;;;;15.88;8.38;;;16.80;1.00;;;;;;5087089;28;20056;-80
2022/04/12 09:13:11;;;;;;;10.48;6.03;;;16.90;1.00;;;;;;5086228;28;20147;-80
2022/04/12 09:15:46;;;;;;;8.60;5.70;;;17.10;1.00;;;;;;5083565;28;20064;-76
2022/04/12 09:18:13;;;;;;;13.38;4.55;;;17.10;1.00;;;;;;5088495;28;20056;-78
2022/04/12 09:20:43;;;;;;;5.63;2.83;;;17.20;1.00;;;;;;5077784;28;20128;-79
2022/04/12 09:23:16;;;;;;;7.18;3.47;;;16.90;1.00;;;;;;5059074;28;20132;-79
2022/04/12 09:25:57;;;;;;;9.52;4.00;;;16.70;1.00;;;;;;5076476;28;20048;-80
2022/04/12 09:28:24;;;;;;;9.60;6.00;;;16.90;1.00;;;;;;5071347;28;20044;-79
2022/04/12 09:30:55;;;;;;;12.52;6.60;;;17.00;1.00;;;;;;5081229;28;20045;-78
2022/04/12 09:33:37;;;;;;;10.35;6.22;;;17.20;1.00;;;;;;5068431;28;20040;-78
2022/04/12 09:36:06;;;;;;;17.63;10.27;;;17.30;1.00;;;;;;5074461;28;20126;-78
2022/04/12 09:38:36;;;;;;;10.52;4.38;;;17.40;1.00;;;;;;5054771;28;20048;-77
2022/04/12 09:41:17;;;;;;;8.43;4.28;;;17.40;1.00;;;;;;5077664;28;20044;-79
2022/04/12 09:44:07;;;;;;;4.85;3.00;;;17.40;1.00;;;;;;5061839;28;20045;-76
2022/04/12 09:46:36;;;;;;;6.45;3.20;;;17.20;1.00;;;;;;5059550;28;20044;-79
2022/04/12 09:49:05;;;;;;;8.82;4.72;;;17.30;1.00;;;;;;5073618;28;20504;-78
2022/04/12 09:51:36;;;;;;;4.82;2.70;;;17.30;1.00;;;;;;5050817;28;20051;-77
2022/04/12 09:54:06;;;;;;;13.60;5.13;;;17.30;1.00;;;;;;5065864;28;20055;-79
2022/04/12 09:56:37;;;;;;;5.60;3.28;;;17.50;1.00;;;;;;5077263;28;20053;-79
2022/04/12 09:59:07;;;;;;;6.80;3.80;;;17.60;1.00;;;;;;5073632;28;20491;-80
2022/04/12 10:01:39;;;;;;;5.40;2.95;;;17.50;1.00;;;;;;5066763;28;20086;-80
2022/04/12 10:04:09;;;;;;;8.50;3.90;;;17.60;1.00;;;;;;5082142;28;20051;-79
2022/04/12 10:07:09;;;;;;;9.13;4.15;;;17.50;1.00;;;;;;5051659;28;20054;-79
2022/04/12 10:09:40;;;;;;;7.25;3.50;;;17.60;1.00;;;;;;5058085;28;20057;-78
2022/04/12 10:12:10;;;;;;;6.88;4.43;;;17.70;1.00;;;;;;5080063;28;20051;-79
2022/04/12 10:14:38;;;;;;;9.93;5.50;;;17.70;1.00;;;;;;5088686;28;20059;-79
2022/04/12 10:17:06;;;;;;;8.73;4.38;;;17.70;1.00;;;;;;5083651;28;20100;-77
2022/04/12 10:19:35;;;;;;;6.43;3.85;;;17.70;1.00;;;;;;5075706;28;20112;-76
2022/04/12 10:22:04;;;;;;;6.90;3.60;;;17.90;1.00;;;;;;5077787;28;20051;-78
2022/04/12 10:24:32;;;;;;;7.00;4.45;;;18.00;1.00;;;;;;5063968;28;20054;-76
2022/04/12 10:27:00;;;;;;;9.77;4.75;;;18.00;1.00;;;;;;5076921;28;20134;-76
2022/04/12 10:29:28;;;;;;;8.43;4.30;;;17.90;1.00;;;;;;5063025;28;20044;-76
2022/04/12 10:31:57;;;;;;;10.40;6.90;;;17.90;1.00;;;;;;5059263;28;20045;-80
2022/04/12 10:34:25;;;;;;;8.73;6.20;;;17.70;1.00;;;;;;5078651;28;20049;-78
2022/04/12 10:37:08;;;;;;;8.65;5.40;;;17.60;1.00;;;;;;5068687;28;20041;-76
2022/04/12 10:39:38;;;;;;;11.20;5.82;;;17.80;1.00;;;;;;5064265;28;20052;-79
2022/04/12 10:42:09;;;;;;;7.72;4.47;;;17.90;1.00;;;;;;5062017;28;20047;-78
2022/04/12 10:44:40;;;;;;;8.43;4.50;;;18.00;1.00;;;;;;5071141;28;20099;-77
2022/04/12 10:47:21;;;;;;;9.48;4.32;;;18.00;1.00;;;;;;5069842;28;20127;-78
2022/04/12 10:49:53;;;;;;;10.98;6.95;;;17.80;1.00;;;;;;5077568;28;20045;-78
2022/04/12 10:52:21;;;;;;;7.00;4.63;;;17.60;1.00;;;;;;5063010;28;20036;-78
2022/04/12 10:54:49;;;;;;;8.52;4.70;;;17.60;1.00;;;;;;5068483;28;20155;-78
2022/04/12 10:57:26;;;;;;;8.70;4.95;;;17.60;1.00;;;;;;5065231;28;20040;-78
2022/04/12 11:00:00;;;;;;;13.52;6.40;;;17.70;1.00;;;;;;5046298;28;20488;-77
2022/04/12 11:02:31;;;;;;;9.45;4.35;;;17.80;1.00;;;;;;5077083;28;20052;-77
2022/04/12 11:05:00;;;;;;;12.93;5.75;;;18.00;1.00;;;;;;5051724;28;20079;-78
2022/04/12 11:07:33;;;;;;;12.40;7.82;;;18.10;1.00;;;;;;5075460;28;20036;-79
2022/04/12 11:10:08;;;;;;;7.18;4.68;;;18.20;1.00;;;;;;5074939;28;20139;-77
2022/04/12 11:12:42;;;;;;;11.77;6.47;;;18.30;1.00;;;;;;5067839;28;20400;-76
2022/04/12 11:15:28;;;;;;;9.20;4.97;;;18.40;1.00;;;;;;5053765;28;20053;-76
2022/04/12 11:18:12;;;;;;;9.65;5.95;;;18.40;1.00;;;;;;5072087;28;20044;-77
2022/04/12 11:20:41;;;;;;;10.07;6.50;;;18.40;1.00;;;;;;5073871;28;20451;-75
2022/04/12 11:23:11;;;;;;;22.85;8.55;;;18.40;1.00;;;;;;5062062;28;20474;-75
2022/04/12 11:25:49;;;;;;;11.82;7.68;;;18.50;1.00;;;;;;5069865;28;20048;-78
2022/04/12 11:28:21;;;;;;;10.20;5.95;;;18.50;1.00;;;;;;5052706;28;20155;-75
2022/04/12 11:30:57;;;;;;;7.90;5.00;;;18.50;1.00;;;;;;5053879;28;20071;-77
2022/04/12 11:33:27;;;;;;;13.00;6.57;;;18.50;1.00;;;;;;5053837;28;20044;-77
2022/04/12 11:35:55;;;;;;;12.27;8.15;;;18.40;1.00;;;;;;5063724;28;20152;-77
2022/04/12 11:38:24;;;;;;;11.30;7.90;;;18.40;1.00;;;;;;5069955;28;20044;-76
2022/04/12 11:40:52;;;;;;;12.20;8.90;;;18.50;1.00;;;;;;5074339;28;20071;-76
2022/04/12 11:43:24;;;;;;;9.98;6.55;;;18.50;1.00;;;;;;5065007;28;20465;-75
2022/04/12 11:45:57;;;;;;;13.60;6.60;;;18.50;1.00;;;;;;5074440;28;20060;-76
2022/04/12 11:48:29;;;;;;;16.15;8.27;;;18.60;1.00;;;;;;5074001;28;20040;-76
2022/04/12 11:50:58;;;;;;;10.68;6.10;;;18.50;1.00;;;;;;5073570;28;20041;-77
2022/04/12 11:53:26;;;;;;;11.13;6.22;;;18.50;1.00;;;;;;5073508;28;20047;-76
2022/04/12 11:56:00;;;;;;;10.18;6.38;;;18.40;1.00;;;;;;5055975;28;20094;-77
2022/04/12 11:58:29;;;;;;;10.95;7.28;;;18.50;1.00;;;;;;5056012;28;20040;-79
2022/04/12 12:00:59;;;;;;;15.52;8.05;;;18.70;1.00;;;;;;5074479;28;20090;-75
2022/04/12 12:03:28;;;;;;;11.20;7.10;;;18.70;1.00;;;;;;5074819;28;20506;-77
2022/04/12 12:05:58;;;;;;;12.35;7.38;;;18.60;1.00;;;;;;5075499;28;20040;-76
2022/04/12 12:08:26;;;;;;;12.80;8.18;;;18.50;1.00;;;;;;5078117;28;20043;-76
2022/04/12 12:10:53;;;;;;;12.63;6.40;;;18.60;1.00;;;;;;5075389;28;20131;-76
2022/04/12 12:13:24;;;;;;;11.93;8.10;;;18.60;1.00;;;;;;5063471;28;20054;-78
2022/04/12 12:15:51;;;;;;;11.35;7.25;;;18.70;1.00;;;;;;5081706;28;20067;-78
2022/04/12 12:18:20;;;;;;;9.90;6.45;;;18.80;1.00;;;;;;5070783;28;20049;-78
2022/04/12 12:20:48;;;;;;;11.77;6.55;;;18.80;1.00;;;;;;5080815;28;20040;-76
2022/04/12 12:23:16;;;;;;;10.20;7.00;;;18.80;1.00;;;;;;5057502;28;20049;-78
2022/04/12 12:25:45;;;;;;;11.25;7.93;;;18.80;1.00;;;;;;5058997;28;20056;-78
2022/04/12 12:28:14;;;;;;;14.20;9.18;;;18.90;1.00;;;;;;5077609;28;20044;-77
2022/04/12 12:30:43;;;;;;;14.02;7.72;;;18.90;1.00;;;;;;5080875;28;20096;-79
2022/04/12 12:33:11;;;;;;;11.98;7.35;;;18.90;1.00;;;;;;5062989;28;20073;-75
2022/04/12 12:35:46;;;;;;;11.23;7.15;;;19.10;1.00;;;;;;5079430;28;20136;-82
2022/04/12 12:38:16;;;;;;;10.82;7.55;;;19.20;1.00;;;;;;5063830;28;20044;-77
2022/04/12 12:40:45;;;;;;;10.80;6.05;;;19.10;1.00;;;;;;5083455;28;20036;-76
2022/04/12 12:43:13;;;;;;;11.88;7.38;;;19.10;1.00;;;;;;5080046;28;20065;-78
2022/04/12 12:45:43;;;;;;;11.88;8.13;;;19.10;1.00;;;;;;5078389;28;20055;-78
2022/04/12 12:48:13;;;;;;;13.85;7.57;;;19.10;1.00;;;;;;5078892;28;20047;-79
2022/04/12 12:50:42;;;;;;;11.30;7.30;;;19.20;1.00;;;;;;5064036;28;20041;-78
2022/04/12 12:53:11;;;;;;;11.82;7.47;;;19.30;1.00;;;;;;5080420;28;20295;-78
2022/04/12 12:55:42;;;;;;;9.77;6.55;;;19.40;1.00;;;;;;5084612;28;20106;-77
2022/04/12 12:58:12;;;;;;;11.02;7.47;;;19.60;1.00;;;;;;5069760;28;20047;-78